Freeman, Washington
Current Conditions -  °F | °C
As of 2:53 AM on Thursday 27 Nov 2014 (Local Time) from KSFF Reporting Station
Overcast Overcast  
Wind Chill: 11°   Ceiling: 8000
Heat Index: 11°   Visibility: 10mi
Dew Point:   Wind: 10mph
Humidity: 63%   Direction: 230°SW
Pressure: 29.9"   Gusts: NA
Location:  47.52°N, 117.2°W
Report Text: KSFF 271053Z AUTO 23009KT 10SM BKN080 OVC095 11/04 A2990 RMK AO2 SLP129 T01060039
Loading
Personal Weather Stations






























Interactive Weather Map New forecast layout! Learn more

10-Day Weather Forecast

Advertisements
Track Severe Weather on mobile